sensor_id;sensor_type;location;lat;lon;timestamp;temperature;humidity
65584;DHT22;73032;43.592;1.458;2023-12-04T00:00:16;6.98;54.83
65584;DHT22;73032;43.592;1.458;2023-12-04T00:02:43;6.99;54.88
65584;DHT22;73032;43.592;1.458;2023-12-04T00:05:10;7.00;55.26
65584;DHT22;73032;43.592;1.458;2023-12-04T00:07:36;6.96;55.27
65584;DHT22;73032;43.592;1.458;2023-12-04T00:10:03;7.02;55.80
65584;DHT22;73032;43.592;1.458;2023-12-04T00:12:30;6.99;56.20
65584;DHT22;73032;43.592;1.458;2023-12-04T00:14:57;7.00;55.96
65584;DHT22;73032;43.592;1.458;2023-12-04T00:17:24;6.99;56.54
65584;DHT22;73032;43.592;1.458;2023-12-04T00:19:50;7.00;56.44
65584;DHT22;73032;43.592;1.458;2023-12-04T00:22:17;6.98;56.96
65584;DHT22;73032;43.592;1.458;2023-12-04T00:24:44;7.02;57.21
65584;DHT22;73032;43.592;1.458;2023-12-04T00:27:10;7.08;56.26
65584;DHT22;73032;43.592;1.458;2023-12-04T00:29:40;7.08;57.03
65584;DHT22;73032;43.592;1.458;2023-12-04T00:32:06;7.03;57.43
65584;DHT22;73032;43.592;1.458;2023-12-04T00:34:36;7.10;57.22
65584;DHT22;73032;43.592;1.458;2023-12-04T00:37:05;7.09;57.95
65584;DHT22;73032;43.592;1.458;2023-12-04T00:39:32;7.08;57.85
65584;DHT22;73032;43.592;1.458;2023-12-04T00:41:59;7.08;57.77
65584;DHT22;73032;43.592;1.458;2023-12-04T00:44:25;7.09;57.98
65584;DHT22;73032;43.592;1.458;2023-12-04T00:46:52;7.10;58.21
65584;DHT22;73032;43.592;1.458;2023-12-04T00:49:19;7.12;58.32
65584;DHT22;73032;43.592;1.458;2023-12-04T00:51:46;7.08;58.77
65584;DHT22;73032;43.592;1.458;2023-12-04T00:54:12;7.08;59.04
65584;DHT22;73032;43.592;1.458;2023-12-04T00:56:39;7.08;59.48
65584;DHT22;73032;43.592;1.458;2023-12-04T00:59:08;7.15;59.03
65584;DHT22;73032;43.592;1.458;2023-12-04T01:01:38;7.13;59.46
65584;DHT22;73032;43.592;1.458;2023-12-04T01:04:07;7.18;60.22
65584;DHT22;73032;43.592;1.458;2023-12-04T01:06:34;7.12;60.49
65584;DHT22;73032;43.592;1.458;2023-12-04T01:09:02;7.16;60.53
65584;DHT22;73032;43.592;1.458;2023-12-04T01:11:28;7.18;60.94
65584;DHT22;73032;43.592;1.458;2023-12-04T01:13:55;7.16;61.05
65584;DHT22;73032;43.592;1.458;2023-12-04T01:16:22;7.18;61.12
65584;DHT22;73032;43.592;1.458;2023-12-04T01:18:49;7.18;61.44
65584;DHT22;73032;43.592;1.458;2023-12-04T01:21:15;7.19;61.90
65584;DHT22;73032;43.592;1.458;2023-12-04T01:23:42;7.22;61.81
65584;DHT22;73032;43.592;1.458;2023-12-04T01:26:09;7.16;62.55
65584;DHT22;73032;43.592;1.458;2023-12-04T01:28:37;7.13;62.85
65584;DHT22;73032;43.592;1.458;2023-12-04T01:31:04;7.08;62.87
65584;DHT22;73032;43.592;1.458;2023-12-04T01:33:31;7.09;63.04
65584;DHT22;73032;43.592;1.458;2023-12-04T01:35:57;7.09;63.13
65584;DHT22;73032;43.592;1.458;2023-12-04T01:38:24;7.06;63.42
65584;DHT22;73032;43.592;1.458;2023-12-04T01:40:51;7.06;63.59
65584;DHT22;73032;43.592;1.458;2023-12-04T01:43:17;7.09;63.81
65584;DHT22;73032;43.592;1.458;2023-12-04T01:45:44;7.09;63.92
65584;DHT22;73032;43.592;1.458;2023-12-04T01:48:14;7.05;64.01
65584;DHT22;73032;43.592;1.458;2023-12-04T01:50:45;7.05;64.30
65584;DHT22;73032;43.592;1.458;2023-12-04T01:53:15;7.08;64.25
65584;DHT22;73032;43.592;1.458;2023-12-04T01:55:46;7.05;64.81
65584;DHT22;73032;43.592;1.458;2023-12-04T01:58:12;7.02;65.03
65584;DHT22;73032;43.592;1.458;2023-12-04T02:00:39;7.05;65.15
65584;DHT22;73032;43.592;1.458;2023-12-04T02:03:07;7.03;65.28
65584;DHT22;73032;43.592;1.458;2023-12-04T02:05:35;7.03;65.32
65584;DHT22;73032;43.592;1.458;2023-12-04T02:08:02;7.03;65.66
65584;DHT22;73032;43.592;1.458;2023-12-04T02:10:29;7.00;65.93
65584;DHT22;73032;43.592;1.458;2023-12-04T02:12:56;6.99;66.00
65584;DHT22;73032;43.592;1.458;2023-12-04T02:15:23;7.00;66.29
65584;DHT22;73032;43.592;1.458;2023-12-04T02:17:50;6.99;66.57
65584;DHT22;73032;43.592;1.458;2023-12-04T02:20:17;7.00;66.61
65584;DHT22;73032;43.592;1.458;2023-12-04T02:22:47;6.98;66.61
65584;DHT22;73032;43.592;1.458;2023-12-04T02:25:16;6.95;66.99
65584;DHT22;73032;43.592;1.458;2023-12-04T02:28:03;6.92;67.45
65584;DHT22;73032;43.592;1.458;2023-12-04T02:30:32;6.92;67.60
65584;DHT22;73032;43.592;1.458;2023-12-04T02:33:04;6.93;67.76
65584;DHT22;73032;43.592;1.458;2023-12-04T02:35:33;6.99;67.68
65584;DHT22;73032;43.592;1.458;2023-12-04T02:38:01;6.98;68.08
65584;DHT22;73032;43.592;1.458;2023-12-04T02:40:29;6.95;68.27
65584;DHT22;73032;43.592;1.458;2023-12-04T02:42:56;6.92;68.48
65584;DHT22;73032;43.592;1.458;2023-12-04T02:45:22;6.96;68.62
65584;DHT22;73032;43.592;1.458;2023-12-04T02:47:49;6.99;68.70
65584;DHT22;73032;43.592;1.458;2023-12-04T02:50:16;6.95;69.13
65584;DHT22;73032;43.592;1.458;2023-12-04T02:52:42;6.99;69.17
65584;DHT22;73032;43.592;1.458;2023-12-04T02:55:09;6.96;69.47
65584;DHT22;73032;43.592;1.458;2023-12-04T02:57:36;6.95;69.40
65584;DHT22;73032;43.592;1.458;2023-12-04T03:00:03;6.99;69.58
65584;DHT22;73032;43.592;1.458;2023-12-04T03:02:31;6.98;69.67
65584;DHT22;73032;43.592;1.458;2023-12-04T03:04:57;6.96;70.03
65584;DHT22;73032;43.592;1.458;2023-12-04T03:07:24;6.96;70.09
65584;DHT22;73032;43.592;1.458;2023-12-04T03:09:53;6.96;70.40
65584;DHT22;73032;43.592;1.458;2023-12-04T03:12:19;6.95;70.72
65584;DHT22;73032;43.592;1.458;2023-12-04T03:14:49;6.99;70.60
65584;DHT22;73032;43.592;1.458;2023-12-04T03:17:16;7.00;70.89
65584;DHT22;73032;43.592;1.458;2023-12-04T03:19:44;7.03;70.99
65584;DHT22;73032;43.592;1.458;2023-12-04T03:22:12;7.02;71.70
65584;DHT22;73032;43.592;1.458;2023-12-04T03:24:39;7.00;71.54
65584;DHT22;73032;43.592;1.458;2023-12-04T03:27:06;7.05;72.05
65584;DHT22;73032;43.592;1.458;2023-12-04T03:29:32;6.99;72.65
65584;DHT22;73032;43.592;1.458;2023-12-04T03:31:59;7.03;72.79
65584;DHT22;73032;43.592;1.458;2023-12-04T03:34:26;7.02;72.81
65584;DHT22;73032;43.592;1.458;2023-12-04T03:36:52;7.08;73.01
65584;DHT22;73032;43.592;1.458;2023-12-04T03:39:19;7.15;72.80
65584;DHT22;73032;43.592;1.458;2023-12-04T03:41:47;7.15;72.88
65584;DHT22;73032;43.592;1.458;2023-12-04T03:44:14;7.22;72.84
65584;DHT22;73032;43.592;1.458;2023-12-04T03:46:41;7.27;73.02
65584;DHT22;73032;43.592;1.458;2023-12-04T03:49:07;7.30;72.82
65584;DHT22;73032;43.592;1.458;2023-12-04T03:51:34;7.36;72.77
65584;DHT22;73032;43.592;1.458;2023-12-04T03:54:01;7.37;72.77
65584;DHT22;73032;43.592;1.458;2023-12-04T03:56:27;7.42;72.79
65584;DHT22;73032;43.592;1.458;2023-12-04T03:58:54;7.42;72.72
65584;DHT22;73032;43.592;1.458;2023-12-04T04:01:21;7.42;73.64
65584;DHT22;73032;43.592;1.458;2023-12-04T04:03:47;7.40;74.40
65584;DHT22;73032;43.592;1.458;2023-12-04T04:06:14;7.44;74.56
65584;DHT22;73032;43.592;1.458;2023-12-04T04:08:41;7.46;74.39
65584;DHT22;73032;43.592;1.458;2023-12-04T04:11:07;7.50;74.40
65584;DHT22;73032;43.592;1.458;2023-12-04T04:13:34;7.52;74.21
65584;DHT22;73032;43.592;1.458;2023-12-04T04:16:01;7.53;74.36
65584;DHT22;73032;43.592;1.458;2023-12-04T04:18:28;7.53;74.50
65584;DHT22;73032;43.592;1.458;2023-12-04T04:20:55;7.57;74.42
65584;DHT22;73032;43.592;1.458;2023-12-04T04:23:21;7.60;74.50
65584;DHT22;73032;43.592;1.458;2023-12-04T04:25:48;7.62;74.80
65584;DHT22;73032;43.592;1.458;2023-12-04T04:28:15;7.66;74.75
65584;DHT22;73032;43.592;1.458;2023-12-04T04:30:41;7.64;74.90
65584;DHT22;73032;43.592;1.458;2023-12-04T04:33:08;7.66;75.04
65584;DHT22;73032;43.592;1.458;2023-12-04T04:35:35;7.69;75.37
65584;DHT22;73032;43.592;1.458;2023-12-04T04:38:01;7.69;75.30
65584;DHT22;73032;43.592;1.458;2023-12-04T04:40:28;7.67;75.96
65584;DHT22;73032;43.592;1.458;2023-12-04T04:42:55;7.73;76.00
65584;DHT22;73032;43.592;1.458;2023-12-04T04:45:25;7.70;75.80
65584;DHT22;73032;43.592;1.458;2023-12-04T04:47:54;7.71;76.09
65584;DHT22;73032;43.592;1.458;2023-12-04T04:50:21;7.70;76.24
65584;DHT22;73032;43.592;1.458;2023-12-04T04:52:50;7.71;76.45
65584;DHT22;73032;43.592;1.458;2023-12-04T04:55:17;7.70;76.62
65584;DHT22;73032;43.592;1.458;2023-12-04T04:58:03;7.69;76.99
65584;DHT22;73032;43.592;1.458;2023-12-04T05:00:30;7.67;77.41
65584;DHT22;73032;43.592;1.458;2023-12-04T05:02:57;7.64;77.62
65584;DHT22;73032;43.592;1.458;2023-12-04T05:05:24;7.63;78.14
65584;DHT22;73032;43.592;1.458;2023-12-04T05:07:51;7.63;78.39
65584;DHT22;73032;43.592;1.458;2023-12-04T05:10:17;7.59;78.46
65584;DHT22;73032;43.592;1.458;2023-12-04T05:12:44;7.56;78.96
65584;DHT22;73032;43.592;1.458;2023-12-04T05:15:11;7.57;79.43
65584;DHT22;73032;43.592;1.458;2023-12-04T05:17:38;7.52;79.54
65584;DHT22;73032;43.592;1.458;2023-12-04T05:20:05;7.50;80.01
65584;DHT22;73032;43.592;1.458;2023-12-04T05:22:32;7.46;79.66
65584;DHT22;73032;43.592;1.458;2023-12-04T05:24:58;7.44;80.10
65584;DHT22;73032;43.592;1.458;2023-12-04T05:27:25;7.40;80.36
65584;DHT22;73032;43.592;1.458;2023-12-04T05:29:52;7.40;80.80
65584;DHT22;73032;43.592;1.458;2023-12-04T05:32:19;7.36;81.06
65584;DHT22;73032;43.592;1.458;2023-12-04T05:34:45;7.32;80.88
65584;DHT22;73032;43.592;1.458;2023-12-04T05:37:12;7.30;80.83
65584;DHT22;73032;43.592;1.458;2023-12-04T05:39:39;7.34;80.99
65584;DHT22;73032;43.592;1.458;2023-12-04T05:42:05;7.32;81.40
65584;DHT22;73032;43.592;1.458;2023-12-04T05:44:33;7.36;81.27
65584;DHT22;73032;43.592;1.458;2023-12-04T05:47:00;7.30;81.98
65584;DHT22;73032;43.592;1.458;2023-12-04T05:49:27;7.26;82.04
65584;DHT22;73032;43.592;1.458;2023-12-04T05:51:59;7.23;81.77
65584;DHT22;73032;43.592;1.458;2023-12-04T05:54:28;7.22;82.18
65584;DHT22;73032;43.592;1.458;2023-12-04T05:56:54;7.26;82.13
65584;DHT22;73032;43.592;1.458;2023-12-04T05:59:24;7.23;82.41
65584;DHT22;73032;43.592;1.458;2023-12-04T06:01:50;7.23;82.26
65584;DHT22;73032;43.592;1.458;2023-12-04T06:04:17;7.20;82.46
65584;DHT22;73032;43.592;1.458;2023-12-04T06:06:44;7.18;82.40
65584;DHT22;73032;43.592;1.458;2023-12-04T06:09:10;7.16;83.15
65584;DHT22;73032;43.592;1.458;2023-12-04T06:11:37;7.13;83.33
65584;DHT22;73032;43.592;1.458;2023-12-04T06:14:04;7.13;83.44
65584;DHT22;73032;43.592;1.458;2023-12-04T06:16:30;7.13;83.29
65584;DHT22;73032;43.592;1.458;2023-12-04T06:19:00;7.15;83.59
65584;DHT22;73032;43.592;1.458;2023-12-04T06:21:27;7.13;83.36
65584;DHT22;73032;43.592;1.458;2023-12-04T06:23:57;7.15;83.61
65584;DHT22;73032;43.592;1.458;2023-12-04T06:26:31;7.13;83.74
65584;DHT22;73032;43.592;1.458;2023-12-04T06:29:01;7.16;83.55
65584;DHT22;73032;43.592;1.458;2023-12-04T06:31:31;7.16;83.69
65584;DHT22;73032;43.592;1.458;2023-12-04T06:34:01;7.19;83.67
65584;DHT22;73032;43.592;1.458;2023-12-04T06:36:31;7.18;83.32
65584;DHT22;73032;43.592;1.458;2023-12-04T06:39:02;7.18;83.73
65584;DHT22;73032;43.592;1.458;2023-12-04T06:41:31;7.22;83.56
65584;DHT22;73032;43.592;1.458;2023-12-04T06:43:58;7.22;83.70
65584;DHT22;73032;43.592;1.458;2023-12-04T06:46:27;7.19;83.85
65584;DHT22;73032;43.592;1.458;2023-12-04T06:49:02;7.20;83.72
65584;DHT22;73032;43.592;1.458;2023-12-04T06:51:32;7.18;83.63
65584;DHT22;73032;43.592;1.458;2023-12-04T06:54:01;7.16;83.54
65584;DHT22;73032;43.592;1.458;2023-12-04T06:56:28;7.19;83.46
65584;DHT22;73032;43.592;1.458;2023-12-04T06:58:55;7.20;83.32
65584;DHT22;73032;43.592;1.458;2023-12-04T07:01:22;7.18;83.66
65584;DHT22;73032;43.592;1.458;2023-12-04T07:03:49;7.19;83.59
65584;DHT22;73032;43.592;1.458;2023-12-04T07:06:16;7.20;83.33
65584;DHT22;73032;43.592;1.458;2023-12-04T07:08:44;7.16;83.63
65584;DHT22;73032;43.592;1.458;2023-12-04T07:11:11;7.18;83.67
65584;DHT22;73032;43.592;1.458;2023-12-04T07:13:41;7.19;83.37
65584;DHT22;73032;43.592;1.458;2023-12-04T07:16:08;7.20;83.44
65584;DHT22;73032;43.592;1.458;2023-12-04T07:18:35;7.20;83.32
65584;DHT22;73032;43.592;1.458;2023-12-04T07:21:02;7.20;83.14
65584;DHT22;73032;43.592;1.458;2023-12-04T07:23:30;7.24;83.36
65584;DHT22;73032;43.592;1.458;2023-12-04T07:25:57;7.24;83.42
65584;DHT22;73032;43.592;1.458;2023-12-04T07:28:23;7.26;83.25
65584;DHT22;73032;43.592;1.458;2023-12-04T07:30:51;7.22;83.12
65584;DHT22;73032;43.592;1.458;2023-12-04T07:33:17;7.23;83.04
65584;DHT22;73032;43.592;1.458;2023-12-04T07:35:44;7.24;83.18
65584;DHT22;73032;43.592;1.458;2023-12-04T07:38:11;7.27;83.40
65584;DHT22;73032;43.592;1.458;2023-12-04T07:40:38;7.29;83.32
65584;DHT22;73032;43.592;1.458;2023-12-04T07:43:04;7.30;83.09
65584;DHT22;73032;43.592;1.458;2023-12-04T07:45:31;7.27;83.41
65584;DHT22;73032;43.592;1.458;2023-12-04T07:47:58;7.29;83.59
65584;DHT22;73032;43.592;1.458;2023-12-04T07:50:24;7.30;83.29
65584;DHT22;73032;43.592;1.458;2023-12-04T07:52:51;7.30;83.63
65584;DHT22;73032;43.592;1.458;2023-12-04T07:55:18;7.33;83.46
65584;DHT22;73032;43.592;1.458;2023-12-04T07:57:45;7.36;83.02
65584;DHT22;73032;43.592;1.458;2023-12-04T08:00:12;7.39;83.12
65584;DHT22;73032;43.592;1.458;2023-12-04T08:02:39;7.39;83.11
65584;DHT22;73032;43.592;1.458;2023-12-04T08:05:06;7.42;83.25
65584;DHT22;73032;43.592;1.458;2023-12-04T08:07:35;7.42;83.10
65584;DHT22;73032;43.592;1.458;2023-12-04T08:10:02;7.40;83.36
65584;DHT22;73032;43.592;1.458;2023-12-04T08:12:29;7.44;83.34
65584;DHT22;73032;43.592;1.458;2023-12-04T08:14:56;7.43;83.28
65584;DHT22;73032;43.592;1.458;2023-12-04T08:17:23;7.43;83.21
65584;DHT22;73032;43.592;1.458;2023-12-04T08:19:50;7.47;83.29
65584;DHT22;73032;43.592;1.458;2023-12-04T08:22:19;7.49;83.04
65584;DHT22;73032;43.592;1.458;2023-12-04T08:24:46;7.53;83.11
65584;DHT22;73032;43.592;1.458;2023-12-04T08:27:12;7.59;83.08
65584;DHT22;73032;43.592;1.458;2023-12-04T08:29:40;7.60;83.11
65584;DHT22;73032;43.592;1.458;2023-12-04T08:32:07;7.64;82.95
65584;DHT22;73032;43.592;1.458;2023-12-04T08:34:33;7.66;82.72
65584;DHT22;73032;43.592;1.458;2023-12-04T08:37:01;7.66;82.89
65584;DHT22;73032;43.592;1.458;2023-12-04T08:39:28;7.67;82.86
65584;DHT22;73032;43.592;1.458;2023-12-04T08:41:54;7.70;82.89
65584;DHT22;73032;43.592;1.458;2023-12-04T08:44:30;7.73;82.97
65584;DHT22;73032;43.592;1.458;2023-12-04T08:46:56;7.83;82.95
65584;DHT22;73032;43.592;1.458;2023-12-04T08:49:24;8.02;82.66
65584;DHT22;73032;43.592;1.458;2023-12-04T08:52:05;8.22;82.52
65584;DHT22;73032;43.592;1.458;2023-12-04T08:54:32;8.42;82.11
65584;DHT22;73032;43.592;1.458;2023-12-04T08:56:59;8.51;81.86
65584;DHT22;73032;43.592;1.458;2023-12-04T08:59:26;8.59;81.65
65584;DHT22;73032;43.592;1.458;2023-12-04T09:01:54;8.68;81.43
65584;DHT22;73032;43.592;1.458;2023-12-04T09:04:21;8.71;81.23
65584;DHT22;73032;43.592;1.458;2023-12-04T09:06:47;8.82;80.89
65584;DHT22;73032;43.592;1.458;2023-12-04T09:09:17;9.60;79.66
65584;DHT22;73032;43.592;1.458;2023-12-04T09:11:44;10.75;79.32
65584;DHT22;73032;43.592;1.458;2023-12-04T09:14:10;11.74;77.69
65584;DHT22;73032;43.592;1.458;2023-12-04T09:16:37;12.39;75.42
65584;DHT22;73032;43.592;1.458;2023-12-04T09:19:04;13.25;72.85
65584;DHT22;73032;43.592;1.458;2023-12-04T09:21:31;13.71;70.25
65584;DHT22;73032;43.592;1.458;2023-12-04T09:23:58;13.99;69.71
65584;DHT22;73032;43.592;1.458;2023-12-04T09:26:25;14.33;69.29
65584;DHT22;73032;43.592;1.458;2023-12-04T09:28:51;14.05;67.43
65584;DHT22;73032;43.592;1.458;2023-12-04T09:31:18;14.56;65.85
65584;DHT22;73032;43.592;1.458;2023-12-04T09:33:46;14.72;66.18
65584;DHT22;73032;43.592;1.458;2023-12-04T09:36:14;15.17;66.26
65584;DHT22;73032;43.592;1.458;2023-12-04T09:38:41;15.51;64.18
65584;DHT22;73032;43.592;1.458;2023-12-04T09:41:12;15.89;65.12
65584;DHT22;73032;43.592;1.458;2023-12-04T09:43:41;16.24;63.61
65584;DHT22;73032;43.592;1.458;2023-12-04T09:46:11;16.47;62.75
65584;DHT22;73032;43.592;1.458;2023-12-04T09:48:38;16.54;62.56
65584;DHT22;73032;43.592;1.458;2023-12-04T09:51:09;16.24;60.13
65584;DHT22;73032;43.592;1.458;2023-12-04T09:53:39;15.78;61.80
65584;DHT22;73032;43.592;1.458;2023-12-04T09:56:07;15.85;61.68
65584;DHT22;73032;43.592;1.458;2023-12-04T09:58:39;15.77;61.41
65584;DHT22;73032;43.592;1.458;2023-12-04T10:01:06;15.31;61.44
65584;DHT22;73032;43.592;1.458;2023-12-04T10:03:34;14.63;60.79
65584;DHT22;73032;43.592;1.458;2023-12-04T10:06:01;14.34;63.09
65584;DHT22;73032;43.592;1.458;2023-12-04T10:08:28;14.20;64.11
65584;DHT22;73032;43.592;1.458;2023-12-04T10:10:55;13.94;64.30
65584;DHT22;73032;43.592;1.458;2023-12-04T10:13:22;13.75;64.66
65584;DHT22;73032;43.592;1.458;2023-12-04T10:16:09;13.59;65.15
65584;DHT22;73032;43.592;1.458;2023-12-04T10:18:36;13.71;66.06
65584;DHT22;73032;43.592;1.458;2023-12-04T10:21:04;13.69;65.55
65584;DHT22;73032;43.592;1.458;2023-12-04T10:23:43;13.62;65.12
65584;DHT22;73032;43.592;1.458;2023-12-04T10:26:14;13.58;65.20
65584;DHT22;73032;43.592;1.458;2023-12-04T10:28:59;13.48;65.65
65584;DHT22;73032;43.592;1.458;2023-12-04T10:31:26;13.40;64.71
65584;DHT22;73032;43.592;1.458;2023-12-04T10:33:53;13.45;65.14
65584;DHT22;73032;43.592;1.458;2023-12-04T10:36:21;13.48;65.11
65584;DHT22;73032;43.592;1.458;2023-12-04T10:38:58;13.55;64.84
65584;DHT22;73032;43.592;1.458;2023-12-04T10:41:26;13.81;65.32
65584;DHT22;73032;43.592;1.458;2023-12-04T10:43:55;14.01;64.37
65584;DHT22;73032;43.592;1.458;2023-12-04T10:46:35;14.25;63.25
65584;DHT22;73032;43.592;1.458;2023-12-04T10:49:04;14.60;62.53
65584;DHT22;73032;43.592;1.458;2023-12-04T10:51:33;14.98;62.02
65584;DHT22;73032;43.592;1.458;2023-12-04T10:54:01;15.57;62.27
65584;DHT22;73032;43.592;1.458;2023-12-04T10:56:37;16.16;60.35
65584;DHT22;73032;43.592;1.458;2023-12-04T10:59:11;16.70;59.51
65584;DHT22;73032;43.592;1.458;2023-12-04T11:01:40;17.11;56.98
65584;DHT22;73032;43.592;1.458;2023-12-04T11:04:11;17.39;55.70
65584;DHT22;73032;43.592;1.458;2023-12-04T11:06:42;17.45;55.83
65584;DHT22;73032;43.592;1.458;2023-12-04T11:09:09;17.61;55.25
65584;DHT22;73032;43.592;1.458;2023-12-04T11:11:40;17.39;53.75
65584;DHT22;73032;43.592;1.458;2023-12-04T11:14:14;17.45;54.59
65584;DHT22;73032;43.592;1.458;2023-12-04T11:16:47;17.31;52.81
65584;DHT22;73032;43.592;1.458;2023-12-04T11:19:36;17.22;54.46
65584;DHT22;73032;43.592;1.458;2023-12-04T11:22:07;17.45;54.00
65584;DHT22;73032;43.592;1.458;2023-12-04T11:24:35;17.65;50.95
65584;DHT22;73032;43.592;1.458;2023-12-04T11:27:02;17.90;52.39
65584;DHT22;73032;43.592;1.458;2023-12-04T11:29:30;17.56;52.34
65584;DHT22;73032;43.592;1.458;2023-12-04T11:31:57;17.08;50.38
65584;DHT22;73032;43.592;1.458;2023-12-04T11:34:25;16.32;51.38
65584;DHT22;73032;43.592;1.458;2023-12-04T11:36:52;15.83;53.65
65584;DHT22;73032;43.592;1.458;2023-12-04T11:39:19;15.51;54.93
65584;DHT22;73032;43.592;1.458;2023-12-04T11:41:49;15.92;54.40
65584;DHT22;73032;43.592;1.458;2023-12-04T11:44:18;16.59;53.15
65584;DHT22;73032;43.592;1.458;2023-12-04T11:46:57;16.54;52.40
65584;DHT22;73032;43.592;1.458;2023-12-04T11:49:30;16.26;53.58
65584;DHT22;73032;43.592;1.458;2023-12-04T11:52:04;15.73;53.59
65584;DHT22;73032;43.592;1.458;2023-12-04T11:57:25;15.10;55.59
65584;DHT22;73032;43.592;1.458;2023-12-04T12:05:39;14.50;58.22
65584;DHT22;73032;43.592;1.458;2023-12-04T12:08:08;14.42;58.96
65584;DHT22;73032;43.592;1.458;2023-12-04T12:10:35;14.28;59.25
65584;DHT22;73032;43.592;1.458;2023-12-04T12:13:02;14.18;59.46
65584;DHT22;73032;43.592;1.458;2023-12-04T12:15:29;14.06;59.53
65584;DHT22;73032;43.592;1.458;2023-12-04T12:17:56;13.98;60.08
65584;DHT22;73032;43.592;1.458;2023-12-04T12:20:23;13.83;59.93
65584;DHT22;73032;43.592;1.458;2023-12-04T12:22:49;13.69;60.36
65584;DHT22;73032;43.592;1.458;2023-12-04T12:25:17;13.59;60.93
65584;DHT22;73032;43.592;1.458;2023-12-04T12:27:45;13.51;61.44
65584;DHT22;73032;43.592;1.458;2023-12-04T12:30:12;13.44;61.70
65584;DHT22;73032;43.592;1.458;2023-12-04T12:32:39;13.43;61.98
65584;DHT22;73032;43.592;1.458;2023-12-04T12:35:06;13.35;62.20
65584;DHT22;73032;43.592;1.458;2023-12-04T12:37:35;13.28;62.89
65584;DHT22;73032;43.592;1.458;2023-12-04T12:40:03;13.33;62.68
65584;DHT22;73032;43.592;1.458;2023-12-04T12:42:31;13.31;63.07
65584;DHT22;73032;43.592;1.458;2023-12-04T12:45:01;13.33;63.22
65584;DHT22;73032;43.592;1.458;2023-12-04T12:47:29;13.34;63.49
65584;DHT22;73032;43.592;1.458;2023-12-04T12:49:56;13.40;63.52
65584;DHT22;73032;43.592;1.458;2023-12-04T12:52:23;13.37;63.50
65584;DHT22;73032;43.592;1.458;2023-12-04T12:54:50;13.45;62.86
65584;DHT22;73032;43.592;1.458;2023-12-04T12:57:18;13.40;63.40
65584;DHT22;73032;43.592;1.458;2023-12-04T12:59:45;13.41;63.77
65584;DHT22;73032;43.592;1.458;2023-12-04T13:02:11;13.44;64.17
65584;DHT22;73032;43.592;1.458;2023-12-04T13:04:40;13.48;63.70
65584;DHT22;73032;43.592;1.458;2023-12-04T13:07:07;13.51;63.85
65584;DHT22;73032;43.592;1.458;2023-12-04T13:09:35;13.55;64.15
65584;DHT22;73032;43.592;1.458;2023-12-04T13:12:03;13.61;64.19
65584;DHT22;73032;43.592;1.458;2023-12-04T13:14:31;13.65;63.78
65584;DHT22;73032;43.592;1.458;2023-12-04T13:16:58;13.64;64.09
65584;DHT22;73032;43.592;1.458;2023-12-04T13:19:24;13.62;64.24
65584;DHT22;73032;43.592;1.458;2023-12-04T13:21:53;13.64;64.06
65584;DHT22;73032;43.592;1.458;2023-12-04T13:24:20;13.62;64.09
65584;DHT22;73032;43.592;1.458;2023-12-04T13:26:47;13.57;64.32
65584;DHT22;73032;43.592;1.458;2023-12-04T13:29:14;13.53;64.70
65584;DHT22;73032;43.592;1.458;2023-12-04T13:31:45;13.50;64.48
65584;DHT22;73032;43.592;1.458;2023-12-04T13:34:17;13.48;64.98
65584;DHT22;73032;43.592;1.458;2023-12-04T13:36:47;13.44;65.23
65584;DHT22;73032;43.592;1.458;2023-12-04T13:39:14;13.38;64.51
65584;DHT22;73032;43.592;1.458;2023-12-04T13:41:47;13.28;64.70
65584;DHT22;73032;43.592;1.458;2023-12-04T13:44:52;13.18;63.75
65584;DHT22;73032;43.592;1.458;2023-12-04T13:47:18;13.14;64.25
65584;DHT22;73032;43.592;1.458;2023-12-04T13:49:45;13.13;65.21
65584;DHT22;73032;43.592;1.458;2023-12-04T13:52:13;13.13;65.41
65584;DHT22;73032;43.592;1.458;2023-12-04T13:54:40;13.10;65.57
65584;DHT22;73032;43.592;1.458;2023-12-04T13:57:16;13.10;65.71
65584;DHT22;73032;43.592;1.458;2023-12-04T14:00:09;13.07;64.55
65584;DHT22;73032;43.592;1.458;2023-12-04T14:02:36;13.08;65.62
65584;DHT22;73032;43.592;1.458;2023-12-04T14:05:04;13.06;65.64
65584;DHT22;73032;43.592;1.458;2023-12-04T14:07:31;13.07;65.99
65584;DHT22;73032;43.592;1.458;2023-12-04T14:09:58;13.08;66.04
65584;DHT22;73032;43.592;1.458;2023-12-04T14:12:25;13.06;66.64
65584;DHT22;73032;43.592;1.458;2023-12-04T14:14:52;13.04;66.89
65584;DHT22;73032;43.592;1.458;2023-12-04T14:17:23;13.03;66.98
65584;DHT22;73032;43.592;1.458;2023-12-04T14:19:51;13.01;66.90
65584;DHT22;73032;43.592;1.458;2023-12-04T14:22:17;12.96;67.27
65584;DHT22;73032;43.592;1.458;2023-12-04T14:24:45;12.99;67.63
65584;DHT22;73032;43.592;1.458;2023-12-04T14:27:11;12.97;67.82
65584;DHT22;73032;43.592;1.458;2023-12-04T14:29:39;13.01;68.27
65584;DHT22;73032;43.592;1.458;2023-12-04T14:32:06;13.03;68.43
65584;DHT22;73032;43.592;1.458;2023-12-04T14:34:33;13.10;68.53
65584;DHT22;73032;43.592;1.458;2023-12-04T14:37:00;13.08;68.79
65584;DHT22;73032;43.592;1.458;2023-12-04T14:39:27;13.11;68.78
65584;DHT22;73032;43.592;1.458;2023-12-04T14:41:54;13.10;69.01
65584;DHT22;73032;43.592;1.458;2023-12-04T14:44:20;13.15;68.75
65584;DHT22;73032;43.592;1.458;2023-12-04T14:46:47;13.14;68.97
65584;DHT22;73032;43.592;1.458;2023-12-04T14:49:14;13.14;68.91
65584;DHT22;73032;43.592;1.458;2023-12-04T14:51:40;13.28;68.95
65584;DHT22;73032;43.592;1.458;2023-12-04T14:54:08;13.48;68.62
65584;DHT22;73032;43.592;1.458;2023-12-04T14:56:41;13.78;68.09
65584;DHT22;73032;43.592;1.458;2023-12-04T14:59:31;13.72;67.08
65584;DHT22;73032;43.592;1.458;2023-12-04T15:02:27;13.67;66.89
65584;DHT22;73032;43.592;1.458;2023-12-04T15:04:54;13.57;67.04
65584;DHT22;73032;43.592;1.458;2023-12-04T15:07:36;13.44;66.99
65584;DHT22;73032;43.592;1.458;2023-12-04T15:10:03;13.35;67.17
65584;DHT22;73032;43.592;1.458;2023-12-04T15:12:59;13.21;67.11
65584;DHT22;73032;43.592;1.458;2023-12-04T15:15:44;12.96;67.59
65584;DHT22;73032;43.592;1.458;2023-12-04T15:18:34;12.79;68.94
65584;DHT22;73032;43.592;1.458;2023-12-04T15:21:01;12.69;70.07
65584;DHT22;73032;43.592;1.458;2023-12-04T15:23:28;12.49;71.47
65584;DHT22;73032;43.592;1.458;2023-12-04T15:25:55;12.36;72.45
65584;DHT22;73032;43.592;1.458;2023-12-04T15:28:22;12.18;73.67
65584;DHT22;73032;43.592;1.458;2023-12-04T15:30:49;12.12;74.01
65584;DHT22;73032;43.592;1.458;2023-12-04T15:33:16;11.98;74.85
65584;DHT22;73032;43.592;1.458;2023-12-04T15:35:43;11.89;75.12
65584;DHT22;73032;43.592;1.458;2023-12-04T15:38:09;11.84;75.32
65584;DHT22;73032;43.592;1.458;2023-12-04T15:40:36;11.81;75.59
65584;DHT22;73032;43.592;1.458;2023-12-04T15:43:02;11.74;75.36
65584;DHT22;73032;43.592;1.458;2023-12-04T15:45:29;11.67;74.42
65584;DHT22;73032;43.592;1.458;2023-12-04T15:47:56;11.64;74.06
65584;DHT22;73032;43.592;1.458;2023-12-04T15:50:23;11.61;73.62
65584;DHT22;73032;43.592;1.458;2023-12-04T15:52:51;11.61;73.78
65584;DHT22;73032;43.592;1.458;2023-12-04T15:55:18;11.58;73.55